Accueil
METAR-TAF:

METAR-TAF

Aéroports :

Larnaca, Chypre

Aéroport international de Larnaca

latitude: 34-53N, longitude: 033-38E, altitude: 2 m

Observation

Le bulletin a été fait il y a 30 minutes, à 14:00 UTC
Vent 9 kt de est
Température 22°C
Humidité 57%
Pression 1012 hPa
Visibilité 10 km ou plus
Quelques nuages à une hauteur de 3000 ft

METAR: LCLK 301400Z 09009KT 9999 FEW030 22/13 Q1012 NOSIG

Heure: 17:30 (14:30 UTC)

Prévision

Le bulletin a été fait il y a 3 heures et 0 minutes, à 11:30 UTC
Prévision valable du 30 à 12 UTC au 31 à 12 UTC
Vent 10 kt de est/nord-est
Visibilité 10 km ou plus
Quelques nuages à une hauteur de 4000 ft
Evoluant progressivement
du 30 à 15 UTC au 30 à 19 UTC
Vent 6 kt de nord-ouest
Evoluant progressivement
du 31 à 06 UTC au 31 à 10 UTC
Vent 16 kt de sud/sud-ouest

TAF: LCLK 301130Z 3012/3112 07010KT 9999 FEW040 BECMG 3015/3019 32006KT BECMG 3106/3110 21016KT

Observations et prévisions météorologiques de plus de 4000 aéroports (messages METAR et TAF).

Les stations disponibles sont représentées par des disques jaunes et rouges sur la carte.

Passer la souris dessus pour voir le nom de la station.

Cliquer dessus pour voir les observations et prévisions météorologiques.

Pour changer de carte: cliquez sur les boutons verts avec une croix noire pour zoomer, sur le bouton vert avec un tiret pour effectuer un zoom arrière, ou sur les flèches vertes pour les cartes adjacentes.


METAR-TAF: